Time;durP1;ratioP1;P1;durP2;ratioP2;P2;SDS_P1;SDS_P2;PMS_P1;PMS_P2;Temp;Humidity;BMP_temperature;BMP_pressure;BME280_temperature;BME280_humidity;BME280_pressure;Samples;Min_cycle;Max_cycle;Signal;HPM_P1;HPM_P2
2023/03/29 00:00:27;;;;;;;8.70;3.80;;;;;;;-2.78;62.51;97163.49;109343;1272;22579;-81
2023/03/29 00:03:15;;;;;;;7.50;4.00;;;;;;;-2.86;62.51;97168.45;109369;1264;23877;-81
2023/03/29 00:05:43;;;;;;;7.70;3.40;;;;;;;-2.92;62.67;97178.52;109300;1272;53305;-80
2023/03/29 00:08:13;;;;;;;7.50;3.70;;;;;;;-2.97;62.71;97171.85;109332;1272;22138;-80
2023/03/29 00:10:43;;;;;;;8.80;4.10;;;;;;;-3.01;62.55;97173.87;109342;1264;22676;-80
2023/03/29 00:13:11;;;;;;;8.40;4.00;;;;;;;-3.03;62.56;97175.57;109361;1269;22649;-80
2023/03/29 00:15:51;;;;;;;10.60;4.80;;;;;;;-3.07;62.97;97174.89;109269;1272;83138;-80
2023/03/29 00:18:32;;;;;;;8.70;3.90;;;;;;;-3.14;62.80;97170.34;109370;1272;23864;-80
2023/03/29 00:21:03;;;;;;;9.30;4.50;;;;;;;-3.16;62.63;97173.47;109382;1270;22532;-80
2023/03/29 00:23:32;;;;;;;9.90;4.90;;;;;;;-3.14;62.57;97176.77;109392;1272;22595;-80
2023/03/29 00:26:01;;;;;;;6.50;4.00;;;;;;;-3.14;62.60;97175.84;109299;1266;54165;-80
2023/03/29 00:28:30;;;;;;;7.90;4.00;;;;;;;-3.16;62.70;97179.80;109357;1272;22497;-80
2023/03/29 00:31:07;;;;;;;8.50;4.90;;;;;;;-3.21;62.49;97179.15;109319;1257;22528;-80
2023/03/29 00:33:36;;;;;;;9.30;4.40;;;;;;;-3.24;62.83;97181.05;109353;1272;22618;-80
2023/03/29 00:36:07;;;;;;;8.80;4.30;;;;;;;-3.26;62.71;97178.52;109203;1270;38561;-79
2023/03/29 00:38:40;;;;;;;8.20;4.90;;;;;;;-3.29;62.83;97183.65;109386;1272;22624;-80
2023/03/29 00:41:09;;;;;;;5.30;3.30;;;;;;;-3.34;62.88;97182.50;109317;1272;22654;-80
2023/03/29 00:43:55;;;;;;;10.80;5.20;;;;;;;-3.41;62.79;97181.10;109375;1272;22517;-79
2023/03/29 00:46:24;;;;;;;5.10;2.80;;;;;;;-3.44;62.80;97182.85;109439;1267;68330;-79
2023/03/29 00:48:53;;;;;;;;;;;;;;;-3.47;62.80;97184.11;109393;1270;22703;-79
2023/03/29 00:51:25;;;;;;;9.70;5.00;;;;;;;-3.50;62.85;97186.65;109404;1272;23940;-80
2023/03/29 00:53:57;;;;;;;11.50;4.40;;;;;;;-3.55;63.21;97188.80;109317;1272;22485;-79
2023/03/29 00:56:33;;;;;;;8.70;5.00;;;;;;;-3.59;63.12;97190.92;109349;1267;33181;-79
2023/03/29 00:59:04;;;;;;;7.20;4.30;;;;;;;-3.62;63.23;97193.21;109339;1272;22525;-79
2023/03/29 01:01:40;;;;;;;7.40;4.10;;;;;;;-3.68;63.24;97192.09;109347;1272;24314;-79
2023/03/29 01:04:17;;;;;;;8.00;3.70;;;;;;;-3.73;63.32;97186.82;109378;1270;22591;-79
2023/03/29 01:06:50;;;;;;;8.90;4.80;;;;;;;-3.75;63.17;97185.74;107862;1251;2015081;-79
2023/03/29 01:09:21;;;;;;;10.10;5.10;;;;;;;-3.73;63.21;97179.36;109288;1272;22696;-79
2023/03/29 01:11:53;;;;;;;8.10;4.30;;;;;;;-3.72;63.19;97181.05;109293;1272;22557;-79
2023/03/29 01:14:28;;;;;;;11.40;4.70;;;;;;;-3.73;63.22;97181.19;109323;1272;22548;-79
2023/03/29 01:16:58;;;;;;;9.50;4.60;;;;;;;-3.70;63.09;97182.88;109270;1272;65376;-79
2023/03/29 01:19:32;;;;;;;8.40;4.40;;;;;;;-3.67;63.03;97180.09;109319;1272;24259;-79
2023/03/29 01:22:12;;;;;;;9.80;5.00;;;;;;;-3.68;62.73;97180.55;109306;1267;22464;-79
2023/03/29 01:25:10;;;;;;;9.40;4.20;;;;;;;-3.71;62.71;97179.88;109347;1269;22665;-79
2023/03/29 01:27:53;;;;;;;10.30;4.70;;;;;;;-3.74;62.66;97177.34;109242;1272;25436;-79
2023/03/29 01:30:28;;;;;;;6.80;3.70;;;;;;;-3.81;62.85;97176.08;109372;1260;22572;-79
2023/03/29 01:33:01;;;;;;;8.80;4.50;;;;;;;-3.94;63.03;97177.09;109328;1272;22467;-79
2023/03/29 01:35:37;;;;;;;7.00;3.70;;;;;;;-3.98;63.16;97177.13;109217;1272;67397;-79
2023/03/29 01:38:12;;;;;;;8.10;4.20;;;;;;;-4.09;63.24;97175.35;109420;1272;24215;-79
2023/03/29 01:40:41;;;;;;;7.30;3.80;;;;;;;-4.14;63.54;97171.63;109404;1272;22530;-78
2023/03/29 01:43:22;;;;;;;7.00;3.50;;;;;;;-4.16;63.83;97173.66;109289;1272;22489;-78
2023/03/29 01:45:57;;;;;;;9.50;4.00;;;;;;;-4.20;63.84;97176.47;109266;1267;42482;-78
2023/03/29 01:48:31;;;;;;;7.10;4.00;;;;;;;-4.28;64.02;97176.31;109355;1267;22628;-78
2023/03/29 01:51:08;;;;;;;11.00;4.30;;;;;;;-4.39;64.26;97176.64;109301;1272;22540;-78
2023/03/29 01:53:41;;;;;;;9.00;4.30;;;;;;;-4.65;64.83;97176.76;109386;1272;22473;-79
2023/03/29 01:56:13;;;;;;;9.50;4.70;;;;;;;-4.75;65.22;97171.70;109236;1271;87289;-78
2023/03/29 01:58:45;;;;;;;8.80;4.20;;;;;;;-4.75;65.37;97168.60;109364;1272;24238;-78
2023/03/29 02:01:19;;;;;;;9.30;4.60;;;;;;;-4.80;65.84;97169.09;109371;1272;24208;-78
2023/03/29 02:03:53;;;;;;;10.10;5.40;;;;;;;-4.88;66.11;97171.04;109297;1272;22536;-78
2023/03/29 02:06:25;;;;;;;7.80;3.80;;;;;;;-4.92;66.63;97178.17;109244;1251;59505;-78
2023/03/29 02:08:56;;;;;;;9.20;5.20;;;;;;;-4.91;66.64;97176.23;109351;1272;22535;-78
2023/03/29 02:11:28;;;;;;;7.70;4.30;;;;;;;-4.93;66.70;97174.41;109325;1272;22552;-78
2023/03/29 02:13:56;;;;;;;9.00;4.70;;;;;;;-4.97;67.14;97177.52;109340;1272;22610;-78
2023/03/29 02:16:27;;;;;;;8.40;4.00;;;;;;;-5.09;67.03;97177.02;109278;1272;55460;-78
2023/03/29 02:18:58;;;;;;;7.80;3.70;;;;;;;-5.22;67.40;97179.76;109320;1272;22561;-78
2023/03/29 02:21:36;;;;;;;6.40;3.90;;;;;;;-5.26;67.73;97177.25;109418;1254;23589;-78
2023/03/29 02:24:10;;;;;;;5.80;3.20;;;;;;;-5.32;68.21;97174.16;109309;1265;23080;-78
2023/03/29 02:26:38;;;;;;;8.40;4.70;;;;;;;-5.37;68.38;97172.09;109283;1271;74100;-78
2023/03/29 02:29:07;;;;;;;8.70;4.80;;;;;;;-5.42;68.59;97171.36;109326;1272;22046;-78
2023/03/29 02:31:40;;;;;;;6.90;4.20;;;;;;;-5.49;68.69;97168.14;109319;1272;22606;-77
2023/03/29 02:34:18;;;;;;;10.80;4.80;;;;;;;-5.51;68.92;97164.04;109352;1266;22585;-78
2023/03/29 02:36:49;;;;;;;7.70;4.50;;;;;;;-5.52;69.14;97169.92;109266;1272;76850;-80
2023/03/29 02:39:20;;;;;;;7.60;4.60;;;;;;;-5.53;69.48;97167.77;109348;1272;23023;-77
2023/03/29 02:41:50;;;;;;;9.50;4.80;;;;;;;-5.49;69.83;97163.89;109324;1272;22553;-77
2023/03/29 02:44:22;;;;;;;10.30;4.50;;;;;;;-5.52;69.81;97163.94;109302;1272;24831;-77
2023/03/29 02:46:55;;;;;;;7.90;3.40;;;;;;;-5.60;70.12;97163.90;109319;1267;80122;-77
2023/03/29 02:49:24;;;;;;;10.50;5.20;;;;;;;-5.69;70.64;97162.16;109368;1272;23954;-77
2023/03/29 02:52:00;;;;;;;11.50;4.20;;;;;;;-5.74;70.57;97161.88;109331;1266;23790;-78
2023/03/29 02:54:30;;;;;;;8.30;4.10;;;;;;;-5.77;70.82;97162.17;109278;1272;22562;-77
2023/03/29 02:57:05;;;;;;;9.70;5.10;;;;;;;-5.81;70.93;97163.64;109281;1269;52001;-77
2023/03/29 02:59:33;;;;;;;7.50;4.00;;;;;;;-5.89;71.11;97164.38;109342;1269;22524;-77
2023/03/29 03:02:02;;;;;;;7.30;4.80;;;;;;;-5.88;71.52;97164.98;109355;1272;22173;-77
2023/03/29 03:04:30;;;;;;;8.80;4.10;;;;;;;-5.89;71.65;97165.41;109343;1267;24239;-77
2023/03/29 03:06:59;;;;;;;8.50;4.60;;;;;;;-6.15;71.70;97171.89;109295;1266;50658;-78
2023/03/29 03:09:27;;;;;;;11.30;5.50;;;;;;;-6.35;72.65;97173.66;109338;1272;22513;-77
2023/03/29 03:11:55;;;;;;;7.90;3.90;;;;;;;-6.31;72.92;97173.61;109350;1272;24061;-77
2023/03/29 03:14:24;;;;;;;14.10;4.50;;;;;;;-6.38;72.93;97178.29;109324;1272;22054;-77
2023/03/29 03:16:52;;;;;;;10.10;5.00;;;;;;;-6.43;73.11;97181.55;109270;1269;53806;-77
2023/03/29 03:19:21;;;;;;;14.70;6.40;;;;;;;-6.43;73.53;97181.42;109369;1266;22479;-77
2023/03/29 03:21:49;;;;;;;8.70;5.50;;;;;;;-6.33;73.71;97182.95;109350;1272;22841;-77
2023/03/29 03:24:18;;;;;;;8.40;4.90;;;;;;;-6.31;74.02;97184.39;109335;1272;22728;-77
2023/03/29 03:26:47;;;;;;;9.30;4.70;;;;;;;-6.22;73.73;97185.77;109301;1265;45739;-77
2023/03/29 03:29:15;;;;;;;9.00;4.40;;;;;;;-6.14;73.77;97184.70;109364;1272;22465;-77
2023/03/29 03:31:45;;;;;;;9.60;5.30;;;;;;;-6.04;73.83;97185.91;109362;1272;24189;-77
2023/03/29 03:34:14;;;;;;;7.00;3.80;;;;;;;-6.01;73.70;97184.69;109284;1272;22562;-77
2023/03/29 03:36:42;;;;;;;9.40;4.90;;;;;;;-6.03;73.43;97187.34;109276;1265;45472;-77
2023/03/29 03:39:11;;;;;;;15.10;7.10;;;;;;;-6.03;73.10;97188.85;109320;1272;25115;-77
2023/03/29 03:41:39;;;;;;;10.70;4.50;;;;;;;-6.03;73.29;97183.72;109354;1266;24306;-77
2023/03/29 03:44:08;;;;;;;10.30;5.20;;;;;;;-5.99;73.30;97184.36;109382;1272;24928;-77
2023/03/29 03:46:37;;;;;;;10.20;5.10;;;;;;;-6.00;73.04;97180.81;109254;1270;124262;-77
2023/03/29 03:49:05;;;;;;;11.00;5.00;;;;;;;-6.03;73.14;97180.46;109303;1272;22541;-77
2023/03/29 03:51:33;;;;;;;13.30;5.50;;;;;;;-6.02;73.09;97178.46;109384;1272;22638;-77
2023/03/29 03:54:02;;;;;;;6.50;3.70;;;;;;;-6.04;72.98;97178.05;109391;1272;23195;-77
2023/03/29 03:56:30;;;;;;;8.60;5.00;;;;;;;-6.07;72.99;97180.86;109320;1266;30312;-77
2023/03/29 03:58:58;;;;;;;8.80;4.50;;;;;;;-6.08;72.75;97188.44;109333;1272;22451;-77
2023/03/29 04:01:27;;;;;;;9.40;5.40;;;;;;;-6.20;72.64;97186.08;109372;1266;22496;-77
2023/03/29 04:03:55;;;;;;;8.30;4.90;;;;;;;-6.41;72.80;97190.77;109369;1272;22614;-77
2023/03/29 04:06:24;;;;;;;9.20;4.90;;;;;;;-6.42;73.46;97190.70;109343;1266;46844;-77
2023/03/29 04:08:52;;;;;;;7.50;4.30;;;;;;;-6.44;73.20;97192.45;109379;1266;25377;-77
2023/03/29 04:11:21;;;;;;;9.60;5.50;;;;;;;-6.48;73.42;97191.58;109353;1272;24971;-77
2023/03/29 04:13:49;;;;;;;9.20;4.60;;;;;;;-6.43;73.53;97185.52;109352;1272;22532;-77
2023/03/29 04:16:18;;;;;;;6.30;3.60;;;;;;;-6.30;73.84;97186.06;109366;1272;34191;-77
2023/03/29 04:18:46;;;;;;;12.20;5.20;;;;;;;-6.18;73.72;97189.77;109350;1272;22458;-77
2023/03/29 04:21:15;;;;;;;8.80;4.30;;;;;;;-6.10;73.64;97189.77;109302;1272;22488;-77
2023/03/29 04:23:45;;;;;;;9.00;4.30;;;;;;;-6.06;73.57;97181.58;109274;1272;22553;-77
2023/03/29 04:26:14;;;;;;;8.00;4.40;;;;;;;-6.06;73.46;97182.80;109351;1271;41516;-77
2023/03/29 04:28:43;;;;;;;9.30;4.90;;;;;;;-6.10;73.35;97190.15;109352;1272;24823;-77
2023/03/29 04:31:14;;;;;;;9.90;5.20;;;;;;;-6.10;73.57;97186.34;109293;1266;22522;-77
2023/03/29 04:33:45;;;;;;;9.10;4.90;;;;;;;-6.09;73.61;97182.50;109387;1266;22532;-77
2023/03/29 04:36:15;;;;;;;9.10;5.10;;;;;;;-5.86;74.04;97180.21;109319;1272;87790;-77
2023/03/29 04:38:43;;;;;;;8.60;5.00;;;;;;;-5.39;74.33;97179.30;109316;1272;22699;-77
2023/03/29 04:41:14;;;;;;;8.30;4.50;;;;;;;-4.88;73.85;97168.25;109381;1269;22514;-77
2023/03/29 04:43:45;;;;;;;7.40;5.00;;;;;;;-4.39;73.25;97171.29;109335;1272;22539;-77
2023/03/29 04:46:13;;;;;;;10.30;5.40;;;;;;;-3.86;73.06;97170.77;109305;1272;37958;-77
2023/03/29 04:48:44;;;;;;;7.80;5.00;;;;;;;-3.21;72.78;97163.09;109398;1272;22526;-77
2023/03/29 04:51:15;;;;;;;8.50;5.20;;;;;;;-2.55;71.97;97165.80;109355;1266;23990;-78
2023/03/29 04:53:43;;;;;;;9.10;4.90;;;;;;;-1.87;71.40;97167.32;109386;1272;22540;-78
2023/03/29 04:56:12;;;;;;;6.90;5.00;;;;;;;-1.38;70.18;97163.94;109308;1266;97298;-78
2023/03/29 04:58:41;;;;;;;7.90;5.20;;;;;;;-0.96;68.60;97163.37;109346;1269;25420;-78
2023/03/29 05:01:09;;;;;;;8.20;4.40;;;;;;;-0.42;68.92;97160.61;109310;1272;22533;-77
2023/03/29 05:03:38;;;;;;;8.00;5.00;;;;;;;0.39;67.99;97156.80;109349;1272;22550;-78
2023/03/29 05:06:10;;;;;;;6.90;4.80;;;;;;;1.14;67.59;97153.77;107973;1272;1826483;-79
2023/03/29 05:08:40;;;;;;;6.60;4.90;;;;;;;1.99;66.91;97153.83;109370;1265;24056;-78
2023/03/29 05:11:10;;;;;;;9.40;5.20;;;;;;;2.50;65.11;97151.95;109315;1272;24173;-79
2023/03/29 05:13:38;;;;;;;6.60;4.50;;;;;;;2.95;63.86;97148.63;109314;1267;25440;-78
2023/03/29 05:16:09;;;;;;;7.10;4.50;;;;;;;3.28;62.43;97146.15;109285;1266;72103;-79
2023/03/29 05:18:43;;;;;;;7.20;4.70;;;;;;;3.69;61.35;97145.77;109334;1272;25417;-78
2023/03/29 05:21:12;;;;;;;11.50;4.50;;;;;;;3.88;59.61;97144.66;109344;1267;25521;-78
2023/03/29 05:23:40;;;;;;;8.10;4.60;;;;;;;3.95;58.43;97147.02;109331;1251;22568;-78
2023/03/29 05:26:09;;;;;;;8.00;4.70;;;;;;;3.99;57.49;97145.61;109299;1269;71465;-78
2023/03/29 05:28:38;;;;;;;6.90;4.30;;;;;;;3.73;55.93;97147.39;109370;1272;23365;-78
2023/03/29 05:31:09;;;;;;;8.50;5.00;;;;;;;3.73;55.69;97150.19;109380;1266;24447;-78
2023/03/29 05:33:37;;;;;;;7.50;4.50;;;;;;;4.10;55.51;97149.52;109378;1272;23302;-78
2023/03/29 05:36:08;;;;;;;8.10;4.90;;;;;;;4.51;55.25;97149.17;107896;1266;1832455;-78
2023/03/29 05:38:37;;;;;;;7.60;5.20;;;;;;;5.31;54.19;97145.48;109351;1272;22542;-77
2023/03/29 05:41:06;;;;;;;6.80;5.00;;;;;;;5.77;53.39;97145.41;109395;1272;22541;-77
2023/03/29 05:43:35;;;;;;;8.20;4.00;;;;;;;5.76;50.40;97147.48;109378;1272;22645;-77
2023/03/29 05:46:04;;;;;;;8.20;5.50;;;;;;;5.30;49.05;97149.23;109305;1264;33708;-77
2023/03/29 05:48:33;;;;;;;7.10;5.30;;;;;;;5.38;49.91;97152.52;109221;1274;22525;-77
2023/03/29 05:51:02;;;;;;;6.10;4.50;;;;;;;5.60;48.82;97152.17;109164;1274;22525;-77
2023/03/29 05:53:34;;;;;;;6.70;4.00;;;;;;;5.52;47.03;97148.68;109211;1274;22517;-77
2023/03/29 05:56:03;;;;;;;7.20;4.90;;;;;;;5.23;46.57;97150.97;109102;1273;48268;-77
2023/03/29 05:58:31;;;;;;;7.30;4.80;;;;;;;5.40;46.45;97149.40;109238;1266;24894;-77
2023/03/29 06:01:01;;;;;;;7.40;4.50;;;;;;;5.50;45.54;97150.13;109155;1274;22622;-77
2023/03/29 06:03:29;;;;;;;6.20;4.50;;;;;;;5.63;45.32;97150.81;109157;1270;22491;-77
2023/03/29 06:06:01;;;;;;;6.20;4.30;;;;;;;6.03;45.88;97153.94;109149;1274;66607;-78
2023/03/29 06:08:30;;;;;;;8.70;4.20;;;;;;;6.22;43.50;97156.93;109279;1266;22528;-78
2023/03/29 06:11:00;;;;;;;5.50;4.20;;;;;;;5.85;43.65;97157.45;109149;1274;22475;-78
2023/03/29 06:13:29;;;;;;;6.20;4.30;;;;;;;6.18;43.00;97161.35;109165;1273;22608;-78
2023/03/29 06:15:58;;;;;;;5.90;4.20;;;;;;;5.68;41.58;97154.96;109146;1269;43722;-78
2023/03/29 06:18:26;;;;;;;6.10;4.40;;;;;;;5.57;41.80;97158.05;109241;1274;22465;-79
2023/03/29 06:20:55;;;;;;;5.50;3.70;;;;;;;5.42;41.23;97162.15;109139;1269;22799;-78
2023/03/29 06:23:24;;;;;;;5.90;3.50;;;;;;;5.16;40.95;97162.82;109222;1273;23597;-78
2023/03/29 06:25:54;;;;;;;5.70;3.90;;;;;;;4.86;41.23;97163.40;109205;1266;48881;-78
2023/03/29 06:28:23;;;;;;;6.00;3.50;;;;;;;5.15;41.50;97168.95;109200;1274;22513;-78
2023/03/29 06:30:54;;;;;;;6.20;3.90;;;;;;;5.12;40.82;97165.36;109259;1273;25431;-77
2023/03/29 06:33:24;;;;;;;6.20;4.10;;;;;;;5.28;40.69;97168.91;109187;1274;23102;-77
2023/03/29 06:35:52;;;;;;;7.00;3.90;;;;;;;5.55;40.91;97169.98;109201;1274;75110;-78
2023/03/29 06:38:20;;;;;;;5.90;3.70;;;;;;;5.99;40.98;97171.51;109225;1270;22520;-79
2023/03/29 06:40:50;;;;;;;6.10;3.60;;;;;;;6.39;40.15;97178.14;109218;1266;22633;-79
2023/03/29 06:43:18;;;;;;;5.10;4.00;;;;;;;6.66;40.12;97174.70;109235;1274;22558;-80
2023/03/29 06:45:48;;;;;;;6.30;3.90;;;;;;;7.19;39.07;97170.13;109134;1274;113046;-79
2023/03/29 06:48:17;;;;;;;6.10;4.90;;;;;;;7.18;38.75;97173.16;109229;1274;24831;-80
2023/03/29 06:50:46;;;;;;;6.00;4.70;;;;;;;7.41;38.65;97176.38;109176;1273;22580;-79
2023/03/29 06:53:17;;;;;;;4.60;3.60;;;;;;;7.85;38.86;97174.88;109241;1274;22577;-79
2023/03/29 06:55:50;;;;;;;5.60;3.80;;;;;;;8.06;37.33;97172.48;109171;1266;65405;-79
2023/03/29 06:58:19;;;;;;;4.80;4.00;;;;;;;7.84;37.09;97177.19;109189;1251;22537;-79
2023/03/29 07:00:48;;;;;;;6.70;4.60;;;;;;;7.71;37.19;97182.05;109233;1274;22624;-79
2023/03/29 07:03:22;;;;;;;6.10;4.10;;;;;;;7.72;36.38;97179.52;109186;1273;23834;-80
2023/03/29 07:05:55;;;;;;;6.30;4.20;;;;;;;7.72;36.47;97175.93;109126;1271;111493;-80
2023/03/29 07:08:29;;;;;;;6.30;4.40;;;;;;;7.89;36.59;97180.89;109210;1250;22530;-79
2023/03/29 07:10:58;;;;;;;6.50;4.60;;;;;;;7.91;36.09;97177.38;109225;1274;25407;-79
2023/03/29 07:13:27;;;;;;;8.20;5.30;;;;;;;8.09;36.78;97178.52;109234;1274;22511;-79
2023/03/29 07:15:55;;;;;;;4.90;3.80;;;;;;;9.10;37.39;97180.91;107878;1251;1811212;-79
2023/03/29 07:18:24;;;;;;;5.50;4.40;;;;;;;10.03;37.00;97182.13;109214;1273;22492;-80
2023/03/29 07:20:52;;;;;;;6.70;3.80;;;;;;;11.34;36.16;97185.80;109212;1266;22629;-79
2023/03/29 07:23:20;;;;;;;6.00;4.90;;;;;;;10.85;33.30;97184.61;109234;1273;22582;-80
2023/03/29 07:25:49;;;;;;;6.60;4.70;;;;;;;10.72;34.14;97193.21;109110;1266;85589;-80
2023/03/29 07:28:17;;;;;;;5.80;4.60;;;;;;;10.48;32.75;97189.09;109156;1274;22577;-80
2023/03/29 07:30:46;;;;;;;7.30;5.60;;;;;;;9.53;33.04;97185.05;109200;1270;22586;-80
2023/03/29 07:33:14;;;;;;;7.70;6.10;;;;;;;10.16;35.00;97184.21;109245;1273;24251;-80
2023/03/29 07:35:46;;;;;;;7.00;5.60;;;;;;;11.00;34.32;97186.20;109106;1273;60679;-80
2023/03/29 07:38:15;;;;;;;6.80;5.10;;;;;;;11.76;34.12;97185.05;109231;1259;23191;-80
2023/03/29 07:40:43;;;;;;;6.20;5.00;;;;;;;12.15;33.64;97183.70;109243;1266;23631;-80
2023/03/29 07:43:14;;;;;;;6.00;5.00;;;;;;;12.41;32.62;97180.46;109171;1273;22629;-80
2023/03/29 07:45:43;;;;;;;6.10;5.10;;;;;;;12.70;32.55;97182.71;109111;1274;83839;-81
2023/03/29 07:48:12;;;;;;;6.50;5.10;;;;;;;12.97;32.32;97181.93;109240;1274;24020;-80
2023/03/29 07:50:42;;;;;;;6.90;5.10;;;;;;;13.32;31.88;97178.77;109230;1274;22471;-80
2023/03/29 07:53:09;;;;;;;;;;;;;;;13.41;31.65;97175.80;109188;1270;22524;-81
2023/03/29 07:55:45;;;;;;;7.70;5.30;;;;;;;13.39;30.98;97178.21;109195;1273;55070;-81
2023/03/29 07:58:15;;;;;;;6.00;5.10;;;;;;;13.36;31.31;97178.52;109201;1266;22468;-81
2023/03/29 08:00:44;;;;;;;7.20;5.80;;;;;;;13.70;31.04;97175.11;109210;1270;24220;-81
2023/03/29 08:03:20;;;;;;;6.60;5.10;;;;;;;13.79;31.39;97175.95;109187;1274;23050;-81
2023/03/29 08:05:48;;;;;;;6.40;4.90;;;;;;;14.67;30.38;97180.94;109099;1268;104733;-81
2023/03/29 08:08:17;;;;;;;8.00;5.30;;;;;;;14.92;30.39;97179.28;109142;1270;22547;-81
2023/03/29 08:10:46;;;;;;;8.90;4.90;;;;;;;14.71;29.70;97178.28;109186;1273;23829;-81
2023/03/29 08:13:14;;;;;;;6.90;5.50;;;;;;;14.31;29.77;97176.27;109266;1250;22483;-81
2023/03/29 08:15:46;;;;;;;5.20;4.30;;;;;;;14.12;29.58;97175.56;109185;1274;82221;-81
2023/03/29 08:18:14;;;;;;;5.80;4.60;;;;;;;14.19;29.68;97171.95;109209;1269;22539;-81
2023/03/29 08:20:43;;;;;;;5.40;4.30;;;;;;;14.42;29.24;97168.81;109230;1274;22635;-81
2023/03/29 08:23:11;;;;;;;7.80;5.30;;;;;;;14.67;28.93;97170.06;109232;1254;22682;-81
2023/03/29 08:25:40;;;;;;;8.10;4.80;;;;;;;14.63;27.51;97169.73;109169;1274;83939;-81
2023/03/29 08:28:11;;;;;;;5.50;4.20;;;;;;;14.32;28.73;97168.09;109217;1270;22559;-82
2023/03/29 08:30:40;;;;;;;4.60;3.60;;;;;;;14.99;28.08;97169.50;109231;1268;22553;-82
2023/03/29 08:33:09;;;;;;;5.10;4.10;;;;;;;14.90;27.19;97168.48;109203;1274;22556;-82
2023/03/29 08:35:38;;;;;;;6.10;4.00;;;;;;;14.88;27.71;97168.98;109089;1268;122335;-82
2023/03/29 08:38:07;;;;;;;5.50;3.70;;;;;;;14.72;27.17;97166.47;109233;1273;22521;-82
2023/03/29 08:40:41;;;;;;;5.70;4.00;;;;;;;14.75;26.98;97165.63;109166;1251;23830;-82
2023/03/29 08:43:27;;;;;;;5.20;3.70;;;;;;;14.64;27.45;97161.14;109217;1273;22641;-82
2023/03/29 08:46:13;;;;;;;4.70;3.30;;;;;;;14.56;27.36;97163.40;109155;1274;60926;-82
2023/03/29 08:48:49;;;;;;;5.00;3.40;;;;;;;14.03;27.10;97163.25;109208;1266;22549;-82
2023/03/29 08:51:23;;;;;;;4.60;3.20;;;;;;;14.02;27.54;97166.58;109219;1267;22691;-82
2023/03/29 08:53:59;;;;;;;5.10;3.40;;;;;;;13.56;26.75;97169.98;109208;1274;22468;-82
2023/03/29 08:56:32;;;;;;;3.80;2.20;;;;;;;13.14;28.01;97165.17;107697;1274;2036106;-83
2023/03/29 08:59:13;;;;;;;4.70;2.80;;;;;;;12.67;27.60;97164.76;109265;1274;25220;-82
2023/03/29 09:01:43;;;;;;;5.00;3.30;;;;;;;11.83;28.30;97168.90;109149;1266;22950;-82
2023/03/29 09:04:15;;;;;;;5.30;3.40;;;;;;;11.57;28.74;97165.84;109155;1274;22623;-82
2023/03/29 09:06:44;;;;;;;4.20;3.00;;;;;;;11.18;29.22;97167.52;109152;1267;77931;-82
2023/03/29 09:09:17;;;;;;;4.70;3.10;;;;;;;10.58;29.26;97166.84;109210;1274;23993;-81
2023/03/29 09:12:02;;;;;;;4.40;3.20;;;;;;;9.27;29.56;97165.17;109250;1274;23391;-81
2023/03/29 09:14:46;;;;;;;5.90;3.10;;;;;;;7.04;30.98;97169.29;109211;1274;23830;-81
2023/03/29 09:17:27;;;;;;;5.00;2.90;;;;;;;6.05;33.34;97166.19;109204;1266;49635;-82
2023/03/29 09:20:03;;;;;;;4.60;2.50;;;;;;;5.73;34.23;97167.09;109244;1274;22556;-82
2023/03/29 09:22:47;;;;;;;6.70;3.00;;;;;;;5.26;35.36;97163.29;109207;1274;22644;-81
2023/03/29 09:25:23;;;;;;;5.90;3.20;;;;;;;5.06;36.18;97163.73;109209;1267;38788;-81
2023/03/29 09:28:01;;;;;;;5.90;2.70;;;;;;;4.96;36.47;97161.73;109193;1269;22978;-81
2023/03/29 09:30:40;;;;;;;4.40;2.60;;;;;;;4.78;37.08;97163.95;109379;1274;23020;-82
2023/03/29 09:33:23;;;;;;;4.20;2.30;;;;;;;4.51;37.14;97164.15;109211;1274;25027;-82
2023/03/29 09:35:58;;;;;;;3.50;2.40;;;;;;;4.23;37.97;97165.17;107657;1266;2063788;-82
2023/03/29 09:38:30;;;;;;;3.70;2.60;;;;;;;4.24;37.76;97167.59;109235;1274;22562;-83
2023/03/29 09:41:03;;;;;;;5.20;2.90;;;;;;;4.23;37.95;97166.59;109201;1266;22682;-83
2023/03/29 09:43:35;;;;;;;5.40;2.90;;;;;;;4.21;38.26;97161.48;109172;1274;22592;-81
2023/03/29 09:46:10;;;;;;;4.90;2.30;;;;;;;4.22;38.95;97160.95;109146;1274;48883;-81
2023/03/29 09:48:43;;;;;;;4.90;2.90;;;;;;;3.92;38.70;97159.30;109232;1274;24025;-82
2023/03/29 09:51:13;;;;;;;6.20;2.90;;;;;;;3.90;39.56;97161.02;109232;1274;22580;-82
2023/03/29 09:53:42;;;;;;;4.20;3.00;;;;;;;4.03;40.02;97152.98;109276;1274;22701;-82
2023/03/29 09:56:14;;;;;;;4.20;2.70;;;;;;;4.13;40.69;97156.80;107546;1274;2105874;-82
2023/03/29 09:58:45;;;;;;;4.80;3.00;;;;;;;4.17;40.88;97153.70;109216;1274;22550;-82
2023/03/29 10:01:18;;;;;;;4.70;2.70;;;;;;;4.33;41.24;97149.60;109192;1274;22531;-82
2023/03/29 10:03:51;;;;;;;4.60;3.00;;;;;;;4.24;40.58;97146.31;109260;1273;24823;-82
2023/03/29 10:06:23;;;;;;;4.60;2.60;;;;;;;4.07;41.56;97145.94;109196;1272;38784;-82
2023/03/29 10:08:55;;;;;;;5.10;3.30;;;;;;;3.88;41.44;97142.13;109277;1274;24214;-82
2023/03/29 10:11:30;;;;;;;5.10;3.10;;;;;;;3.58;41.76;97139.08;109175;1274;22468;-82
2023/03/29 10:14:02;;;;;;;6.50;3.20;;;;;;;3.52;42.32;97139.95;109165;1274;22702;-81
2023/03/29 10:16:36;;;;;;;4.20;3.00;;;;;;;3.79;42.77;97141.91;109312;1272;46809;-83
2023/03/29 10:19:17;;;;;;;8.70;4.50;;;;;;;4.04;42.26;97137.14;109200;1262;22519;-83
2023/03/29 10:21:48;;;;;;;4.70;2.80;;;;;;;3.98;42.32;97134.90;109198;1270;22636;-82
2023/03/29 10:24:20;;;;;;;5.00;3.30;;;;;;;4.15;43.00;97132.19;109128;1274;22599;-82
2023/03/29 10:26:54;;;;;;;5.30;3.40;;;;;;;4.28;43.05;97130.14;109168;1272;56957;-82
2023/03/29 10:29:29;;;;;;;5.80;3.80;;;;;;;4.40;43.60;97122.67;109219;1266;23882;-82
2023/03/29 10:31:58;;;;;;;6.70;3.60;;;;;;;4.50;43.06;97128.98;105347;1275;5018911;-82
2023/03/29 10:34:27;;;;;;;7.10;3.50;;;;;;;4.51;43.15;97125.16;109207;1274;22527;-82
2023/03/29 10:36:59;;;;;;;;;;;;;;;4.51;42.93;97129.17;109247;1270;41660;-82
2023/03/29 10:39:31;;;;;;;6.10;3.20;;;;;;;4.55;43.46;97128.70;109125;1274;22553;-82
2023/03/29 10:42:02;;;;;;;4.70;3.00;;;;;;;4.60;43.67;97130.64;109249;1274;22619;-82
2023/03/29 10:44:33;;;;;;;6.70;3.00;;;;;;;4.58;42.83;97130.60;109208;1274;22510;-82
2023/03/29 10:47:16;;;;;;;4.50;3.00;;;;;;;4.44;42.63;97121.50;109175;1274;72493;-82
2023/03/29 10:49:49;;;;;;;4.10;3.10;;;;;;;4.45;44.23;97121.11;109220;1274;22679;-82
2023/03/29 10:52:18;;;;;;;5.10;3.10;;;;;;;4.50;43.71;97115.30;109283;1274;22583;-82
2023/03/29 10:54:51;;;;;;;5.20;3.50;;;;;;;4.60;44.68;97117.67;109236;1274;22482;-82
2023/03/29 10:57:29;;;;;;;5.80;3.20;;;;;;;4.48;44.88;97110.78;109156;1272;67582;-82
2023/03/29 11:00:09;;;;;;;6.60;3.50;;;;;;;4.23;44.56;97116.42;109206;1274;23703;-82
2023/03/29 11:03:02;;;;;;;6.10;3.60;;;;;;;4.10;44.70;97112.09;109214;1274;22470;-82
2023/03/29 11:05:38;;;;;;;7.00;2.80;;;;;;;4.10;44.71;97112.04;107699;1274;2056792;-83
2023/03/29 11:08:25;;;;;;;6.40;3.60;;;;;;;3.99;44.49;97111.75;109289;1274;25292;-83
2023/03/29 11:11:10;;;;;;;5.70;3.00;;;;;;;4.02;44.67;97109.60;109168;1266;24142;-82
2023/03/29 11:13:47;;;;;;;6.00;3.20;;;;;;;3.98;44.38;97107.37;109107;1266;22810;-83
2023/03/29 11:16:28;;;;;;;6.30;3.20;;;;;;;3.95;44.43;97112.54;109185;1274;32818;-83
2023/03/29 11:19:28;;;;;;;5.00;2.90;;;;;;;3.97;44.65;97099.67;109192;1272;22522;-82
2023/03/29 11:22:05;;;;;;;6.50;3.00;;;;;;;3.95;44.89;97098.00;109234;1274;25338;-82
2023/03/29 11:24:49;;;;;;;6.10;3.40;;;;;;;4.06;44.80;97098.16;109273;1274;22533;-82
2023/03/29 11:27:28;;;;;;;6.70;3.00;;;;;;;4.17;45.17;97091.98;109095;1266;49673;-83
2023/03/29 11:30:07;;;;;;;5.30;3.60;;;;;;;4.02;45.03;97088.58;109118;1272;22515;-83
2023/03/29 11:32:47;;;;;;;5.90;3.70;;;;;;;4.10;45.27;97091.55;109272;1274;22569;-83
2023/03/29 11:35:47;;;;;;;6.40;3.90;;;;;;;4.33;46.62;97084.04;109135;1261;81447;-82
2023/03/29 11:38:31;;;;;;;5.80;3.30;;;;;;;4.47;46.20;97085.08;109112;1274;22468;-82
2023/03/29 11:41:08;;;;;;;7.40;3.80;;;;;;;4.61;45.85;97077.41;109162;1274;23820;-82
2023/03/29 11:43:42;;;;;;;6.60;3.90;;;;;;;4.78;46.32;97074.75;109180;1270;23468;-82
2023/03/29 11:46:20;;;;;;;4.60;2.30;;;;;;;4.67;45.47;97071.84;109124;1273;86688;-82
2023/03/29 11:48:55;;;;;;;4.60;2.90;;;;;;;4.48;44.70;97071.46;109265;1273;22533;-82